Riga, Letland

11:28 AM EEST op 30 augustus 2014 (GMT +0300)
Baltic Container Terminal | Change Station
CLOSE
Current Station
Persoonlijk weerstation
Location: Rīga, RīGAS PILSēTA
Geometrische hoogte: 3 ft
Nabije weerstations

Hoogte 3 ft 57.01 °N, 24.10 °E | Updated 5 minutes ago

Mostly Cloudy
Merendeels bewolkt
59.0 °F
Voelt als 59.0 °F
N
4.0
Wind Variabel Wind van WNW
Gusts 9.0 mijl/u

Vandaag
Hoog -- | Laag -- °F
--% Kans op neerslag
Gisteren
Hoog -- | Laag -- °F
Precip. -- inches
6:21 AM 8:26 PM
Wassende halvemaan, 20% visible
Druk 30.01 inches
Zicht 6.2 mijlen
Wolken Licht bewolkt 1900 ft
Merendeels bewolkt 3600 ft
Dauwpunt 54 °F
Vochtigheid 82%
Neerslag 0.00 inches
Dikte sneeuw Niet beschikbaar.
UV 3 van de 12
Pollen Niet beschikbaar.
Luchtkwaliteit Niet beschikbaar.
Flu Activity Niet beschikbaar.
METAR EVRA 300820Z 24003KT 190V360 9999 SCT019 BKN036 16/12 Q1016 NOSIG

More Conditions Fewer Conditions

Druk 30.01 inches
Zicht 6.2 mijlen
Wolken Licht bewolkt 1900 ft
Merendeels bewolkt 3600 ft
Dauwpunt 54 °F
Vochtigheid 82%
Neerslag 0.00 inches
Dikte sneeuw Niet beschikbaar.
UV 3 van de 12
Pollen Niet beschikbaar.
Luchtkwaliteit Niet beschikbaar.
Flu Activity Niet beschikbaar.
METAR EVRA 300820Z 24003KT 190V360 9999 SCT019 BKN036 16/12 Q1016 NOSIG

More Conditions Fewer Conditions

10-Day Weather Forecast

Almanac

Astronomie

Aug. 30, 2014 Opkomst Ondergang
Werkelijke tijd 6:21 AM EEST 8:26 PM EEST
Burgerlijke schemering 5:40 AM EEST 9:07 PM EEST
Nautische schemering 4:47 AM EEST 9:58 PM EEST
Astronomische schemering 3:44 AM EEST 11:01 PM EEST
Maan 11:50 AM EEST 9:45 PM EEST
Golflengte van het zichtbare licht 15h 26m
Daglengte
14h 04m
Tomorrow will be 4m 42s shorter.
Wassende halvemaan, 20% of the Moon is Illuminated
Vandaag
Wassende halvemaan
sep 2
Eerste kwartier
sep 8
Volle maan
sep 15
Laatste kwartier
sep 24
Nieuw

Extremen gisteren

Country Highs Country Lows

Community

WunderPhotos

Upload Photos

1,748,472 foto’s ge-upload!

Nearby

Luchtkwaliteit

Not available.

Dikte sneeuw

Not available.

Aardbevingen

Stad Distance Mag. Time & Date
No recent earthquake activity has been reported nearby.
Minimum magnitude displayed is 2.5.

Watertemperatuur langs de kust

Plaats Temperatuur
Geen meldingen van stations

Nabije weerstations